Hidden Valley, Pennsylvania
Current Conditions -  °F | °C
As of 4:35 AM on Thursday 18 Dec 2014 (Local Time) from K2G9 Reporting Station
Overcast Overcast  
Wind Chill: 10°   Ceiling: 1400
Heat Index: 23°   Visibility: 10mi
Dew Point: 18°   Wind: 16mph
Humidity: 80%   Direction: 290°WNW
Pressure: 30.06"   Gusts: 23mph
Location:  40.06°N, 79.26°W
Report Text: K2G9 180935Z AUTO 29014G20KT 10SM OVC014 M05/M08 A3006 RMK AO2
Loading
Personal Weather Stations






























Interactive Weather Map New forecast layout! Learn more

10-Day Weather Forecast

Advertisements
Track Severe Weather on mobile